ADDS METAR Data INFO
IDs: Format: Raw Decoded Include TAF

Data at: 0257 UTC 21 Jan 2018

KGVE 210235Z AUTO 00000KT 10SM CLR 04/00 A3009 RMK AO1 T00411001
KGVE 210215Z AUTO 21003KT 10SM CLR 05/00 A3008 RMK AO1 T00540000
KGVE 210155Z AUTO 00000KT 10SM CLR 05/00 A3008 RMK AO1 T00541001
KGVE 210135Z AUTO 00000KT 10SM CLR 06/00 A3007 RMK AO1 T00611003
KGVE 210115Z AUTO 26003KT 10SM CLR 07/00 A3006 RMK AO1 T00720000
KGVE 210055Z AUTO 00000KT 10SM CLR 08/00 A3006 RMK AO1 T00840000
KGVE 210035Z AUTO 23006KT 10SM CLR 10/00 A3005 RMK AO1 T00990000
KGVE 210015Z AUTO 22006KT 10SM CLR 10/00 A3005 RMK AO1 T00951003
KGVE 202355Z AUTO 00000KT 10SM CLR 11/00 A3004 RMK AO1 T01091001 10175 20108
KGVE 202335Z AUTO 23005KT 10SM CLR 12/00 A3004 RMK AO1 T01201001
KGVE 202315Z AUTO 24004KT 10SM CLR 13/00 A3003 RMK AO1 T01251002
KGVE 202255Z AUTO 24004KT 10SM CLR 13/00 A3002 RMK AO1 T01341002
KGVE 202235Z AUTO 23006KT 10SM CLR 14/00 A3001 RMK AO1 T01410000
KGVE 202215Z AUTO 24005KT 10SM CLR 15/00 A3001 RMK AO1 T01460002
KGVE 202155Z AUTO 22005KT 10SM CLR 16/00 A3001 RMK AO1 T01580001
KGVE 202135Z AUTO 23007KT 10SM CLR 17/M01 A3000 RMK AO1 T01711007
KGVE 202115Z AUTO 23005KT 10SM CLR 17/M01 A3000 RMK AO1 T01731010
KGVE 202055Z AUTO 23006KT 10SM CLR 18/M01 A2999 RMK AO1 T01751011
KGVE 202035Z AUTO 23008KT 10SM CLR 18/M01 A2998 RMK AO1 T01751008
KGVE 202015Z AUTO 22009G15KT 10SM CLR 17/M01 A2998 RMK AO1 T01731008
KGVE 201955Z AUTO 23009G14KT 10SM CLR 17/00 A2998 RMK AO1 T01711005
KGVE 201935Z AUTO 23008G15KT 10SM CLR 17/00 A2998 RMK AO1 T01691005
KGVE 201915Z AUTO 22010G14KT 10SM CLR 17/00 A2998 RMK AO1 T01661001
KGVE 201855Z AUTO 23012G19KT 10SM CLR 17/00 A2998 RMK AO1 T01660000
KGVE 201835Z AUTO 24006G14KT 10SM CLR 16/00 A2998 RMK AO1 T01610000
KGVE 201815Z AUTO 23013G17KT 10SM CLR 16/00 A2999 RMK AO1 T01590001
KGVE 201755Z AUTO 24008G15KT 220V280 10SM CLR 15/00 A2999 RMK AO1 T01530003 10154 21043
KGVE 201735Z AUTO 23010G16KT 10SM CLR 15/01 A3000 RMK AO1 T01490005
KGVE 201715Z AUTO 22009G15KT 10SM CLR 15/01 A3000 RMK AO1 T01450008
KGVE 201655Z AUTO 24009G15KT 10SM CLR 14/01 A3001 RMK AO1 T01400007
KGVE 201635Z AUTO 22010G14KT 10SM CLR 14/01 A3002 RMK AO1 T01350007
KGVE 201615Z AUTO 24006KT 10SM CLR 13/01 A3003 RMK AO1 T01330007
KGVE 201555Z AUTO 19007KT 10SM CLR 12/00 A3004 RMK AO1 T01240000
KGVE 201535Z AUTO 18007KT 10SM CLR 11/M01 A3004 RMK AO1 T01111009
KGVE 201515Z AUTO 19007KT 10SM CLR 11/M01 A3005 RMK AO1 T01051010
KGVE 201455Z AUTO 21006KT 10SM CLR 10/M01 A3005 RMK AO1 T00991013
KGVE 201435Z AUTO 00000KT 10SM CLR 06/M05 A3005 RMK AO1 T00641053
KGVE 201415Z AUTO 23007KT 10SM CLR 08/M03 A3005 RMK AO1 T00781028
KGVE 201355Z AUTO 22008KT 10SM CLR 05/M06 A3004 RMK AO1 T00511056
KGVE 201335Z AUTO 24007KT 10SM CLR 03/M08 A3003 RMK AO1 T00261079
KGVE 201315Z AUTO 24004KT 10SM CLR M01/M08 A3003 RMK AO1 T10111079
KGVE 201255Z AUTO 00000KT 10SM CLR M02/M09 A3002 RMK AO1 T10251086
KGVE 201235Z AUTO 00000KT 10SM CLR M04/M09 A3002 RMK AO1 T10371088
KGVE 201215Z AUTO 24004KT 10SM CLR M03/M09 A3002 RMK AO1 T10271090
KGVE 201155Z AUTO 00000KT 10SM CLR M03/M09 A3002 RMK AO1 T10331092 11001 21042
KGVE 201135Z AUTO 00000KT 10SM CLR M02/M09 A3002 RMK AO1 T10241092
KGVE 201115Z AUTO 00000KT 10SM CLR M03/M09 A3001 RMK AO1 T10351087
KGVE 201055Z AUTO 23005KT 10SM CLR M02/M10 A3000 RMK AO1 T10201099
KGVE 201035Z AUTO 23004KT 10SM CLR M02/M09 A3000 RMK AO1 T10201095
KGVE 201015Z AUTO 24003KT 10SM CLR M04/M09 A3000 RMK AO1 T10411090
KGVE 200955Z AUTO 26004KT 10SM CLR M03/M08 A3000 RMK AO1 T10341085
KGVE 200935Z AUTO 27003KT 10SM CLR M01/M10 A2999 RMK AO1 T10111100
KGVE 200915Z AUTO 27003KT 10SM CLR M03/M09 A2999 RMK AO1 T10311090
KGVE 200855Z AUTO 28003KT 10SM CLR M02/M09 A3000 RMK AO1 T10171095
KGVE 200835Z AUTO 00000KT 10SM CLR M02/M10 A3000 RMK AO1 T10161097
KGVE 200815Z AUTO 25004KT 10SM CLR M01/M10 A3001 RMK AO1 T10081097
KGVE 200755Z AUTO 25003KT 10SM CLR M02/M09 A3001 RMK AO1 T10221092
KGVE 200735Z AUTO 25004KT 10SM CLR M02/M09 A3001 RMK AO1 T10231087
KGVE 200715Z AUTO 24003KT 10SM CLR M02/M09 A3001 RMK AO1 T10161095
KGVE 200655Z AUTO 00000KT 10SM CLR M02/M09 A3001 RMK AO1 T10201090
KGVE 200635Z AUTO 00000KT 10SM CLR M02/M09 A3001 RMK AO1 T10171095
KGVE 200615Z AUTO 23003KT 10SM CLR M02/M09 A3002 RMK AO1 T10201091
KGVE 200555Z AUTO 26003KT 10SM CLR M03/M08 A3002 RMK AO1 T10301085 10018 21032
KGVE 200535Z AUTO 27003KT 10SM CLR M02/M09 A3003 RMK AO1 T10231087
KGVE 200515Z AUTO 24004KT 10SM CLR M02/M08 A3003 RMK AO1 T10251079
KGVE 200455Z AUTO 24003KT 10SM CLR M02/M08 A3003 RMK AO1 T10241085 401311063
KGVE 200435Z AUTO 24004KT 10SM CLR M02/M09 A3004 RMK AO1 T10251086
KGVE 200415Z AUTO 23004KT 10SM CLR M03/M08 A3005 RMK AO1 T10291083
KGVE 200355Z AUTO 26004KT 10SM CLR M02/M08 A3005 RMK AO1 T10181084
KGVE 200335Z AUTO 26004KT 10SM CLR M03/M08 A3005 RMK AO1 T10281085
KGVE 200315Z AUTO 25003KT 10SM CLR M03/M08 A3005 RMK AO1 T10321082
KGVE 200255Z AUTO 25003KT 10SM CLR M01/M08 A3005 RMK AO1 T10141084
KGVE 200235Z AUTO 00000KT 10SM CLR M02/M09 A3005 RMK AO1 T10211088
KGVE 200215Z AUTO 00000KT 10SM CLR M03/M09 A3005 RMK AO1 T10261086
KGVE 200155Z AUTO 00000KT 10SM CLR M01/M08 A3005 RMK AO1 T10141079
KGVE 200135Z AUTO 00000KT 10SM CLR M01/M08 A3005 RMK AO1 T10111085
KGVE 200115Z AUTO 00000KT 10SM CLR M01/M09 A3005 RMK AO1 T10111094
KGVE 200055Z AUTO 00000KT 10SM CLR 00/M08 A3005 RMK AO1 T10011084
KGVE 200035Z AUTO 00000KT 10SM CLR M01/M09 A3005 RMK AO1 T10061090
KGVE 200015Z AUTO 00000KT 10SM CLR 01/M10 A3004 RMK AO1 T00071098
KGVE 192355Z AUTO 00000KT 10SM CLR 02/M10 A3005 RMK AO1 T00221101 10131 20020
KGVE 192335Z AUTO 00000KT 10SM CLR 03/M10 A3004 RMK AO1 T00291098
KGVE 192315Z AUTO 00000KT 10SM CLR 04/M10 A3004 RMK AO1 T00381105
KGVE 192255Z AUTO 00000KT 10SM CLR 05/M10 A3004 RMK AO1 T00471104
KGVE 192235Z AUTO 00000KT 10SM CLR 07/M12 A3003 RMK AO1 T00731118
KGVE 192215Z AUTO 20003KT 10SM CLR 08/M13 A3003 RMK AO1 T00831126
KGVE 192155Z AUTO 21007KT 10SM CLR 10/M13 A3003 RMK AO1 T01021126
KGVE 192135Z AUTO 20008KT 10SM CLR 12/M14 A3003 RMK AO1 T01161137
KGVE 192115Z AUTO 20007KT 10SM CLR 12/M14 A3003 RMK AO1 T01241141
KGVE 192055Z AUTO 21009KT 10SM CLR 13/M14 A3003 RMK AO1 T01291142
KGVE 192035Z AUTO 20007KT 10SM CLR 13/M14 A3003 RMK AO1 T01311142
KGVE 192015Z AUTO 21010KT 10SM CLR 13/M15 A3002 RMK AO1 T01301146
KGVE 191955Z AUTO 22009KT 10SM CLR 13/M14 A3002 RMK AO1 T01301141
KGVE 191935Z AUTO 23008G14KT 10SM CLR 13/M14 A3003 RMK AO1 T01281140
KGVE 191915Z AUTO 22008KT 10SM CLR 13/M13 A3003 RMK AO1 T01261133
KGVE 191855Z AUTO 22008G14KT 10SM CLR 13/M15 A3004 RMK AO1 T01251149
KGVE 191835Z AUTO 19008KT 10SM CLR 12/M15 A3004 RMK AO1 T01231151
KGVE 191815Z AUTO 24007G17KT 10SM CLR 12/M15 A3005 RMK AO1 T01221152
KGVE 191755Z AUTO 22009KT 10SM CLR 12/M16 A3005 RMK AO1 T01161163 10117 21063
KGVE 191735Z AUTO 20009KT 10SM CLR 11/M15 A3007 RMK AO1 T01131151
KGVE 191715Z AUTO 22006KT 10SM CLR 10/M15 A3008 RMK AO1 T01041146
KGVE 191655Z AUTO 22007KT 10SM CLR 10/M14 A3010 RMK AO1 T01001144
KGVE 191635Z AUTO 20006KT 10SM CLR 10/M13 A3011 RMK AO1 T00961131
KGVE 191615Z AUTO 19005KT 10SM CLR 09/M13 A3014 RMK AO1 T00871134
KGVE 191555Z AUTO 22006KT 10SM CLR 08/M13 A3014 RMK AO1 T00811128
KGVE 191535Z AUTO 20008KT 10SM CLR 08/M12 A3014 RMK AO1 T00801125
KGVE 191515Z AUTO 19005KT 10SM CLR 07/M13 A3014 RMK AO1 T00741134